Time;durP1;ratioP1;P1;durP2;ratioP2;P2;SDS_P1;SDS_P2;PMS_P1;PMS_P2;Temp;Humidity;BMP_temperature;BMP_pressure;BME280_temperature;BME280_humidity;BME280_pressure;Samples;Min_cycle;Max_cycle;Signal;HPM_P1;HPM_P2
2022/02/25 00:00:34;;;;;;;6.13;2.58;;;4.00;99.90;;;;;;5018907;28;20214;-63
2022/02/25 00:03:01;;;;;;;8.85;2.47;;;4.00;99.90;;;;;;5013717;28;20621;-64
2022/02/25 00:05:29;;;;;;;3.55;1.60;;;3.90;99.90;;;;;;5022237;28;20246;-64
2022/02/25 00:07:57;;;;;;;2.92;1.92;;;3.90;99.90;;;;;;5019744;28;20261;-64
2022/02/25 00:10:24;;;;;;;6.90;2.47;;;3.80;99.90;;;;;;5018123;28;20199;-63
2022/02/25 00:12:51;;;;;;;7.43;1.85;;;3.80;99.90;;;;;;5020248;28;20218;-64
2022/02/25 00:15:18;;;;;;;6.57;1.80;;;3.70;99.90;;;;;;5018445;28;20226;-64
2022/02/25 00:17:46;;;;;;;5.20;2.97;;;3.70;99.90;;;;;;5014762;28;20207;-64
2022/02/25 00:20:13;;;;;;;4.28;2.08;;;3.70;99.90;;;;;;5014321;28;20676;-63
2022/02/25 00:22:41;;;;;;;3.30;1.77;;;3.70;99.90;;;;;;5014501;28;20226;-63
2022/02/25 00:25:11;;;;;;;2.05;1.45;;;3.80;99.90;;;;;;5018505;28;20214;-64
2022/02/25 00:27:39;;;;;;;2.85;2.03;;;3.80;99.90;;;;;;5027214;28;20214;-64
2022/02/25 00:30:08;;;;;;;6.18;2.08;;;3.90;99.90;;;;;;5022577;28;20210;-64
2022/02/25 00:32:35;;;;;;;8.43;2.20;;;3.90;99.90;;;;;;5020843;28;20223;-64
2022/02/25 00:35:03;;;;;;;13.95;6.28;;;3.90;99.90;;;;;;5019840;28;20225;-63
2022/02/25 00:37:30;;;;;;;5.70;1.60;;;3.90;99.90;;;;;;5019609;28;20211;-64
2022/02/25 00:39:58;;;;;;;6.03;2.13;;;3.90;99.90;;;;;;5018761;28;20210;-63
2022/02/25 00:42:26;;;;;;;7.30;2.10;;;3.80;99.90;;;;;;5017972;28;20218;-64
2022/02/25 00:44:53;;;;;;;6.93;2.50;;;3.70;99.90;;;;;;5018544;28;20179;-63
2022/02/25 00:47:20;;;;;;;6.72;2.22;;;3.60;99.90;;;;;;5017638;28;20311;-63
2022/02/25 00:49:47;;;;;;;4.22;2.70;;;3.60;99.90;;;;;;5017836;28;20199;-63
2022/02/25 00:52:14;;;;;;;2.88;2.10;;;3.50;99.90;;;;;;5018078;28;20548;-63
2022/02/25 00:54:44;;;;;;;4.85;2.20;;;3.50;99.90;;;;;;5017815;28;20239;-64
2022/02/25 00:57:11;;;;;;;2.58;2.25;;;3.50;99.90;;;;;;5019542;28;20663;-64
2022/02/25 00:59:39;;;;;;;4.28;1.88;;;3.50;99.90;;;;;;5020522;28;20581;-64
2022/02/25 01:02:06;;;;;;;5.55;2.60;;;3.50;99.90;;;;;;5024417;28;20203;-64
2022/02/25 01:04:33;;;;;;;2.28;1.58;;;3.50;99.90;;;;;;5027147;28;20214;-64
2022/02/25 01:07:00;;;;;;;4.70;2.83;;;3.60;99.90;;;;;;5024298;28;20215;-63
2022/02/25 01:09:27;;;;;;;2.90;2.10;;;3.60;99.90;;;;;;5020146;28;20207;-64
2022/02/25 01:11:54;;;;;;;3.38;2.42;;;3.70;99.90;;;;;;5021096;28;20203;-64
2022/02/25 01:14:22;;;;;;;3.92;2.08;;;3.70;99.90;;;;;;5024994;28;20231;-62
2022/02/25 01:16:50;;;;;;;3.17;1.83;;;3.70;99.90;;;;;;5024548;28;20208;-64
2022/02/25 01:19:17;;;;;;;2.75;1.77;;;3.70;99.90;;;;;;5021054;28;20207;-63
2022/02/25 01:21:46;;;;;;;3.78;1.90;;;3.70;99.90;;;;;;5019506;28;20203;-64
2022/02/25 01:24:13;;;;;;;3.78;1.95;;;3.60;99.90;;;;;;5019208;28;20230;-64
2022/02/25 01:26:40;;;;;;;1.60;1.50;;;3.60;99.90;;;;;;5019045;28;20203;-63
2022/02/25 01:29:07;;;;;;;4.95;2.50;;;3.70;99.90;;;;;;5018890;28;20582;-63
2022/02/25 01:31:35;;;;;;;3.55;1.50;;;3.70;99.90;;;;;;5017654;28;20679;-64
2022/02/25 01:34:03;;;;;;;2.65;1.88;;;3.70;99.90;;;;;;5017286;28;20227;-63
2022/02/25 01:36:30;;;;;;;1.70;1.60;;;3.70;99.90;;;;;;5015926;28;20702;-64
2022/02/25 01:39:02;;;;;;;1.90;1.63;;;3.70;99.90;;;;;;5016587;28;20206;-64
2022/02/25 01:41:30;;;;;;;5.07;2.05;;;3.80;99.90;;;;;;5016415;28;20237;-65
2022/02/25 01:44:12;;;;;;;3.50;2.15;;;3.80;99.90;;;;;;5016097;28;20250;-64
2022/02/25 01:46:39;;;;;;;3.33;2.00;;;3.80;99.90;;;;;;5016338;28;20191;-64
2022/02/25 01:49:07;;;;;;;10.07;2.28;;;3.80;99.90;;;;;;5018503;28;20693;-63
2022/02/25 01:51:34;;;;;;;4.63;2.17;;;3.80;99.90;;;;;;5019467;28;20210;-62
2022/02/25 01:54:02;;;;;;;6.03;2.15;;;3.80;99.90;;;;;;5017128;28;20234;-64
2022/02/25 01:56:29;;;;;;;6.32;2.20;;;3.70;99.90;;;;;;5016020;28;20229;-64
2022/02/25 01:58:56;;;;;;;8.40;2.28;;;3.70;99.90;;;;;;5015732;28;20210;-64
2022/02/25 02:01:23;;;;;;;7.63;2.55;;;3.60;99.90;;;;;;5016185;28;20261;-63
2022/02/25 02:03:53;;;;;;;5.88;3.60;;;3.60;99.90;;;;;;5015769;28;20230;-64
2022/02/25 02:06:22;;;;;;;3.85;2.85;;;3.50;99.90;;;;;;5015525;28;20234;-64
2022/02/25 02:08:49;;;;;;;4.85;2.70;;;3.50;99.90;;;;;;5015341;28;20210;-63
2022/02/25 02:11:32;;;;;;;3.45;2.45;;;3.40;99.90;;;;;;5034411;28;20210;-62
2022/02/25 02:14:00;;;;;;;5.32;2.85;;;3.40;99.90;;;;;;5033780;28;20230;-65
2022/02/25 02:16:28;;;;;;;3.38;3.08;;;3.30;99.90;;;;;;5032461;28;20207;-64
2022/02/25 02:18:55;;;;;;;5.97;2.70;;;3.30;99.90;;;;;;5033896;28;20222;-64
2022/02/25 02:21:27;;;;;;;8.57;3.70;;;3.30;99.90;;;;;;5016164;28;20577;-64
2022/02/25 02:23:58;;;;;;;7.10;3.45;;;3.20;99.90;;;;;;5015619;28;20251;-64
2022/02/25 02:26:27;;;;;;;4.35;3.70;;;3.20;99.90;;;;;;5015341;28;20187;-65
2022/02/25 02:28:54;;;;;;;7.30;4.43;;;3.20;99.90;;;;;;5015082;28;20609;-64
2022/02/25 02:31:21;;;;;;;8.45;3.45;;;3.20;99.90;;;;;;5015050;28;20214;-64
2022/02/25 02:33:48;;;;;;;4.63;3.50;;;3.20;99.90;;;;;;5015244;28;20242;-64
2022/02/25 02:36:16;;;;;;;6.65;3.90;;;3.20;99.90;;;;;;5014831;28;20219;-64
2022/02/25 02:38:43;;;;;;;7.80;3.88;;;3.10;99.90;;;;;;5019663;28;20225;-62
2022/02/25 02:41:12;;;;;;;9.07;5.28;;;3.10;99.90;;;;;;5019445;28;20210;-64
2022/02/25 02:43:40;;;;;;;5.25;3.53;;;3.10;99.90;;;;;;5018823;28;20611;-63
2022/02/25 02:46:08;;;;;;;7.68;4.05;;;3.10;99.90;;;;;;5022188;28;20210;-63
2022/02/25 02:48:35;;;;;;;3.45;3.10;;;3.00;99.90;;;;;;5020390;28;20207;-64
2022/02/25 02:51:03;;;;;;;5.00;3.80;;;3.00;99.90;;;;;;5016711;28;20211;-64
2022/02/25 02:53:30;;;;;;;4.40;3.67;;;2.90;99.90;;;;;;5015547;28;20237;-63
2022/02/25 02:55:57;;;;;;;3.60;3.30;;;2.90;99.90;;;;;;5014829;28;20231;-62
2022/02/25 02:58:26;;;;;;;4.50;3.75;;;2.90;99.90;;;;;;5015100;28;20233;-64
2022/02/25 03:00:53;;;;;;;7.47;4.05;;;2.90;99.90;;;;;;5014998;28;20577;-64
2022/02/25 03:03:20;;;;;;;5.47;3.65;;;2.90;99.90;;;;;;5014388;28;20219;-63
2022/02/25 03:05:48;;;;;;;7.70;4.53;;;2.90;99.90;;;;;;5014384;28;20206;-63
2022/02/25 03:08:15;;;;;;;5.80;4.22;;;2.90;99.90;;;;;;5014354;28;20199;-63
2022/02/25 03:10:44;;;;;;;8.73;3.75;;;2.90;99.90;;;;;;5014233;28;20199;-64
2022/02/25 03:13:14;;;;;;;5.60;4.43;;;2.90;99.90;;;;;;5014292;28;20227;-63
2022/02/25 03:15:43;;;;;;;5.22;3.50;;;2.80;99.90;;;;;;5014525;28;20315;-63
2022/02/25 03:18:12;;;;;;;8.85;5.13;;;2.90;99.90;;;;;;5014347;28;20238;-63
2022/02/25 03:20:39;;;;;;;10.60;3.90;;;2.90;99.90;;;;;;5014341;28;20214;-63
2022/02/25 03:23:06;;;;;;;5.38;4.13;;;2.90;99.90;;;;;;5014337;28;20223;-64
2022/02/25 03:25:33;;;;;;;6.57;4.18;;;3.00;99.90;;;;;;5017750;28;20202;-63
2022/02/25 03:28:00;;;;;;;7.90;3.80;;;3.10;99.90;;;;;;5019513;28;20573;-63
2022/02/25 03:30:27;;;;;;;5.53;4.05;;;3.10;99.90;;;;;;5016855;28;20214;-63
2022/02/25 03:32:56;;;;;;;5.28;4.07;;;3.10;99.90;;;;;;5013957;28;20230;-64
2022/02/25 03:35:23;;;;;;;6.15;4.65;;;3.20;99.90;;;;;;5014056;28;20226;-64
2022/02/25 03:37:50;;;;;;;5.47;4.35;;;3.30;99.90;;;;;;5014418;28;20218;-64
2022/02/25 03:40:18;;;;;;;10.00;5.03;;;3.30;99.90;;;;;;5014429;28;20207;-65
2022/02/25 03:42:45;;;;;;;8.00;4.63;;;3.40;99.90;;;;;;5013746;28;20733;-63
2022/02/25 03:45:14;;;;;;;5.80;4.00;;;3.40;99.90;;;;;;5013759;28;20210;-63
2022/02/25 03:47:41;;;;;;;6.53;4.95;;;3.40;99.90;;;;;;5014195;28;20206;-65
2022/02/25 03:50:10;;;;;;;5.32;4.55;;;3.50;99.90;;;;;;5014331;28;20229;-64
2022/02/25 03:52:38;;;;;;;6.20;4.82;;;3.50;99.90;;;;;;5013942;28;20223;-63
2022/02/25 03:55:07;;;;;;;6.13;4.35;;;3.50;99.90;;;;;;5013877;28;20223;-64
2022/02/25 03:57:34;;;;;;;7.03;5.18;;;3.60;99.90;;;;;;5013973;28;20212;-64
2022/02/25 04:00:01;;;;;;;7.63;5.20;;;3.60;99.90;;;;;;5013524;28;20706;-64
2022/02/25 04:02:28;;;;;;;7.28;4.80;;;3.60;99.90;;;;;;5013950;28;20227;-64
2022/02/25 04:04:55;;;;;;;7.07;4.88;;;3.60;99.90;;;;;;5014322;28;20238;-62
2022/02/25 04:09:24;;;;;;;6.63;5.07;;;3.70;99.90;;;;;;5157759;27;20537;-64
2022/02/25 04:11:52;;;;;;;9.52;5.15;;;3.70;99.90;;;;;;5161426;27;20214;-65
2022/02/25 04:14:20;;;;;;;6.45;4.13;;;3.70;99.90;;;;;;5172266;27;20581;-63
2022/02/25 04:16:48;;;;;;;9.55;5.50;;;3.70;99.90;;;;;;5175991;27;20198;-64
2022/02/25 04:19:15;;;;;;;7.15;4.90;;;3.70;99.90;;;;;;5195474;22;20573;-58
2022/02/25 04:21:42;;;;;;;5.65;4.00;;;3.70;99.90;;;;;;5130988;28;20218;-57
2022/02/25 04:24:10;;;;;;;8.00;4.70;;;3.80;99.90;;;;;;5131385;28;20239;-57
2022/02/25 04:26:38;;;;;;;7.20;4.47;;;3.80;99.90;;;;;;5131370;28;20207;-58
2022/02/25 04:29:05;;;;;;;6.40;4.65;;;3.80;99.90;;;;;;5131123;28;20237;-58
2022/02/25 04:31:33;;;;;;;6.38;4.80;;;3.70;99.90;;;;;;5131147;28;20219;-57
2022/02/25 04:34:00;;;;;;;5.40;4.35;;;3.80;99.90;;;;;;5131217;28;20300;-58
2022/02/25 04:36:27;;;;;;;9.63;5.15;;;3.80;99.90;;;;;;5131107;28;20210;-58
2022/02/25 04:38:54;;;;;;;6.22;5.05;;;3.80;99.90;;;;;;5130709;28;20195;-58
2022/02/25 04:41:22;;;;;;;12.25;4.70;;;3.80;99.90;;;;;;5131434;28;20219;-59
2022/02/25 04:43:50;;;;;;;6.95;4.72;;;3.80;99.90;;;;;;5131284;28;20662;-57
2022/02/25 04:46:19;;;;;;;7.28;4.70;;;3.90;99.90;;;;;;5131344;28;20202;-59
2022/02/25 04:48:46;;;;;;;6.10;5.07;;;3.90;99.90;;;;;;5130634;28;20215;-58
2022/02/25 04:51:16;;;;;;;8.38;4.88;;;3.90;99.90;;;;;;5130602;28;20779;-59
2022/02/25 04:53:43;;;;;;;7.13;4.30;;;3.90;99.90;;;;;;5130471;28;20663;-58
2022/02/25 04:56:11;;;;;;;5.28;4.60;;;3.90;99.90;;;;;;5130414;28;20572;-59
2022/02/25 04:58:38;;;;;;;12.23;5.10;;;3.90;99.90;;;;;;5130625;28;20191;-58
2022/02/25 05:01:06;;;;;;;13.48;5.13;;;3.90;99.60;;;;;;5130861;28;20226;-58
2022/02/25 05:03:34;;;;;;;5.97;4.05;;;3.90;99.50;;;;;;5130694;28;20203;-57
2022/02/25 05:06:02;;;;;;;5.68;4.75;;;3.90;99.40;;;;;;5131117;28;20203;-58
2022/02/25 05:08:29;;;;;;;7.07;4.28;;;3.90;99.40;;;;;;5130280;28;20222;-58
2022/02/25 05:10:57;;;;;;;6.38;4.10;;;3.90;99.40;;;;;;5130543;28;20330;-58
2022/02/25 05:13:24;;;;;;;6.97;4.53;;;3.90;99.40;;;;;;5130069;28;20203;-58
2022/02/25 05:21:22;;;;;;;4.93;4.00;;;3.80;99.50;;;;;;5116437;28;20304;-58
2022/02/25 05:23:49;;;;;;;6.47;4.85;;;3.80;99.70;;;;;;5116660;28;20547;-58
2022/02/25 05:26:16;;;;;;;5.63;4.15;;;3.80;99.80;;;;;;5116474;28;20202;-58
2022/02/25 05:28:43;;;;;;;8.68;4.95;;;3.70;99.80;;;;;;5116395;28;20220;-58
2022/02/25 05:31:10;;;;;;;10.95;4.85;;;3.70;99.90;;;;;;5116327;28;20216;-58
2022/02/25 05:33:38;;;;;;;5.15;4.65;;;3.80;99.90;;;;;;5116181;28;20211;-58
2022/02/25 05:36:06;;;;;;;9.30;4.00;;;3.80;99.90;;;;;;5116352;28;20559;-58
2022/02/25 05:38:33;;;;;;;11.13;4.60;;;3.80;99.90;;;;;;5116417;28;20199;-58
2022/02/25 05:41:00;;;;;;;12.02;4.65;;;3.80;99.90;;;;;;5116390;28;20227;-58
2022/02/25 05:43:27;;;;;;;7.07;4.50;;;3.80;99.90;;;;;;5116861;28;20200;-58
2022/02/25 05:45:55;;;;;;;6.97;4.70;;;3.80;99.90;;;;;;5116489;28;20207;-58
2022/02/25 05:48:22;;;;;;;8.68;4.18;;;3.80;99.90;;;;;;5115874;28;20219;-58
2022/02/25 05:50:50;;;;;;;7.05;3.75;;;3.80;99.90;;;;;;5115824;28;20219;-58
2022/02/25 05:53:17;;;;;;;8.45;3.90;;;3.80;99.90;;;;;;5116027;28;20206;-58
2022/02/25 05:55:45;;;;;;;6.70;4.63;;;3.80;99.90;;;;;;5115703;28;20207;-58
2022/02/25 05:58:12;;;;;;;6.60;3.60;;;3.70;99.90;;;;;;5115908;28;20204;-58
2022/02/25 06:00:39;;;;;;;10.02;4.63;;;3.70;99.90;;;;;;5115511;28;20219;-58
2022/02/25 06:03:06;;;;;;;10.70;4.65;;;3.60;99.90;;;;;;5115671;28;20215;-59
2022/02/25 06:05:33;;;;;;;9.35;4.63;;;3.50;99.90;;;;;;5115735;28;20199;-58
2022/02/25 06:08:02;;;;;;;9.27;4.38;;;3.50;99.90;;;;;;5115824;28;20211;-58
2022/02/25 06:10:29;;;;;;;13.15;4.15;;;3.40;99.90;;;;;;5115529;28;20228;-59
2022/02/25 06:12:56;;;;;;;13.10;4.85;;;3.40;99.90;;;;;;5116057;28;20202;-58
2022/02/25 06:15:24;;;;;;;7.55;4.50;;;3.40;99.90;;;;;;5115954;28;20203;-59
2022/02/25 06:17:52;;;;;;;6.35;4.50;;;3.30;99.90;;;;;;5115835;28;20192;-58
2022/02/25 06:20:20;;;;;;;8.25;4.07;;;3.30;99.90;;;;;;5115354;28;20234;-59
2022/02/25 06:22:48;;;;;;;9.27;4.13;;;3.30;99.90;;;;;;5115697;28;20217;-58
2022/02/25 06:25:17;;;;;;;7.53;4.80;;;3.30;99.90;;;;;;5115787;28;20593;-59
2022/02/25 06:27:45;;;;;;;9.63;4.63;;;3.30;99.90;;;;;;5115307;28;20199;-59
2022/02/25 06:30:15;;;;;;;8.30;4.80;;;3.30;99.90;;;;;;5115175;27;20224;-59
2022/02/25 06:32:43;;;;;;;13.00;4.53;;;3.30;99.90;;;;;;5115123;28;20227;-58
2022/02/25 06:35:10;;;;;;;7.18;4.78;;;3.20;99.90;;;;;;5115798;28;20222;-59
2022/02/25 06:37:38;;;;;;;9.10;4.68;;;3.20;99.90;;;;;;5115661;28;20225;-58
2022/02/25 06:40:06;;;;;;;4.60;4.13;;;3.20;99.90;;;;;;5115611;28;20230;-58
2022/02/25 06:42:34;;;;;;;6.15;3.97;;;3.30;99.90;;;;;;5115525;28;20215;-57
2022/02/25 06:45:05;;;;;;;9.77;4.55;;;3.20;99.90;;;;;;5116504;28;20207;-58
2022/02/25 06:47:32;;;;;;;8.50;4.30;;;3.20;99.90;;;;;;5115760;28;20188;-58
2022/02/25 06:49:59;;;;;;;9.38;4.97;;;3.30;99.90;;;;;;5115486;28;20223;-58
2022/02/25 06:52:27;;;;;;;8.13;3.25;;;3.20;99.90;;;;;;5115528;28;20203;-58
2022/02/25 06:54:54;;;;;;;9.93;5.07;;;3.30;99.90;;;;;;5115374;28;20203;-58
2022/02/25 06:57:21;;;;;;;6.85;4.45;;;3.30;99.90;;;;;;5115215;28;20639;-58
2022/02/25 06:59:50;;;;;;;5.07;3.38;;;3.30;99.90;;;;;;5115091;28;20216;-58
2022/02/25 07:02:17;;;;;;;11.73;4.82;;;3.40;99.90;;;;;;5115160;28;20207;-58
2022/02/25 07:04:44;;;;;;;6.90;3.80;;;3.40;99.90;;;;;;5114410;28;20203;-58
2022/02/25 07:07:11;;;;;;;11.05;4.07;;;3.50;99.90;;;;;;5114425;28;20203;-58
2022/02/25 07:09:40;;;;;;;8.93;4.00;;;3.50;99.90;;;;;;5114479;28;20233;-59
2022/02/25 07:12:07;;;;;;;7.18;3.65;;;3.60;99.90;;;;;;5114513;28;20200;-58
2022/02/25 07:14:35;;;;;;;6.97;3.70;;;3.60;99.90;;;;;;5114775;28;20207;-58
2022/02/25 07:17:04;;;;;;;10.85;3.85;;;3.70;99.90;;;;;;5115157;28;20619;-59
2022/02/25 07:19:31;;;;;;;9.30;3.72;;;3.80;99.90;;;;;;5114105;28;20231;-58
2022/02/25 07:21:58;;;;;;;11.60;4.70;;;3.80;99.90;;;;;;5114269;28;20199;-59
2022/02/25 07:24:25;;;;;;;7.22;4.00;;;3.90;99.90;;;;;;5114236;28;20279;-57
2022/02/25 07:26:52;;;;;;;8.50;4.45;;;4.00;99.90;;;;;;5114367;28;20235;-59
2022/02/25 07:29:19;;;;;;;7.70;3.70;;;4.10;99.90;;;;;;5113839;28;20795;-59
2022/02/25 07:31:46;;;;;;;5.68;3.03;;;4.20;99.90;;;;;;5114272;28;20529;-58
2022/02/25 07:34:15;;;;;;;4.78;2.83;;;4.40;99.90;;;;;;5114153;28;20208;-58
2022/02/25 07:36:42;;;;;;;14.77;3.17;;;4.40;99.80;;;;;;5113838;28;20234;-58
2022/02/25 07:39:09;;;;;;;9.77;3.05;;;4.50;99.20;;;;;;5114083;28;20307;-59
2022/02/25 07:41:36;;;;;;;7.78;3.67;;;4.60;99.10;;;;;;5114110;28;20200;-59
2022/02/25 07:44:04;;;;;;;6.55;2.80;;;4.60;98.60;;;;;;5113855;28;20239;-58
2022/02/25 07:46:31;;;;;;;16.50;4.25;;;4.60;98.40;;;;;;5114127;28;20227;-59
2022/02/25 07:48:58;;;;;;;3.92;2.60;;;4.70;98.20;;;;;;5113585;28;20224;-59
2022/02/25 07:51:28;;;;;;;8.88;3.30;;;4.80;97.70;;;;;;5113974;28;20238;-59
2022/02/25 07:53:55;;;;;;;7.32;2.75;;;4.90;97.20;;;;;;5114059;28;20565;-59
2022/02/25 07:56:23;;;;;;;14.35;3.28;;;5.00;96.80;;;;;;5113722;28;20196;-59
2022/02/25 07:58:50;;;;;;;6.45;2.30;;;5.10;96.70;;;;;;5114193;28;20282;-59
2022/02/25 08:01:17;;;;;;;16.55;3.20;;;5.20;96.20;;;;;;5113751;28;20227;-59
2022/02/25 08:03:44;;;;;;;4.20;2.75;;;5.30;95.90;;;;;;5113880;28;20200;-59
2022/02/25 08:06:11;;;;;;;7.13;2.28;;;5.50;95.40;;;;;;5114237;28;20256;-59
2022/02/25 08:08:41;;;;;;;10.25;2.80;;;5.70;94.80;;;;;;5113405;28;20256;-58
2022/02/25 08:11:08;;;;;;;6.05;2.40;;;5.70;94.40;;;;;;5114107;28;20227;-59
2022/02/25 08:13:35;;;;;;;10.73;2.95;;;5.70;94.10;;;;;;5114176;28;20203;-59
2022/02/25 08:16:02;;;;;;;7.30;3.00;;;5.70;93.90;;;;;;5113890;28;20235;-59
2022/02/25 08:18:29;;;;;;;7.93;2.60;;;5.60;93.60;;;;;;5113563;28;20575;-59
2022/02/25 08:20:56;;;;;;;10.43;2.95;;;5.60;93.40;;;;;;5113458;28;20303;-59
2022/02/25 08:23:23;;;;;;;9.82;2.60;;;5.50;93.50;;;;;;5113475;28;20218;-61
2022/02/25 08:25:52;;;;;;;5.90;2.60;;;5.50;93.70;;;;;;5113529;28;20203;-60
2022/02/25 08:28:19;;;;;;;8.60;3.22;;;5.60;93.80;;;;;;5113449;28;20199;-59
2022/02/25 08:30:47;;;;;;;8.32;3.63;;;5.50;93.50;;;;;;5113572;28;20310;-60
2022/02/25 08:33:15;;;;;;;6.00;2.72;;;5.60;93.50;;;;;;5113699;28;20225;-60
2022/02/25 08:35:43;;;;;;;6.47;2.85;;;5.60;93.50;;;;;;5113768;28;20236;-58
2022/02/25 08:38:11;;;;;;;7.20;3.17;;;5.60;93.30;;;;;;5113869;28;20210;-59
2022/02/25 08:40:41;;;;;;;6.60;3.60;;;5.60;93.30;;;;;;5113637;28;20220;-59
2022/02/25 08:43:09;;;;;;;9.52;3.85;;;5.60;93.40;;;;;;5113276;28;20203;-59
2022/02/25 08:45:40;;;;;;;6.32;3.78;;;5.60;93.10;;;;;;5113281;28;20210;-58
2022/02/25 08:48:07;;;;;;;11.70;4.28;;;5.60;93.20;;;;;;5113322;28;20210;-59
2022/02/25 08:50:34;;;;;;;9.48;3.78;;;5.60;93.20;;;;;;5113194;28;20235;-58
2022/02/25 08:53:01;;;;;;;12.65;3.42;;;5.60;93.20;;;;;;5114043;28;20236;-59
2022/02/25 08:55:28;;;;;;;7.13;3.45;;;5.60;93.30;;;;;;5116152;28;20226;-59
2022/02/25 08:57:56;;;;;;;6.25;3.35;;;5.70;93.40;;;;;;5117214;28;20203;-59
2022/02/25 09:00:26;;;;;;;10.75;4.63;;;5.80;93.30;;;;;;5117309;28;20230;-59
2022/02/25 09:02:54;;;;;;;11.18;3.80;;;5.90;93.20;;;;;;5117891;28;20234;-59
2022/02/25 09:05:22;;;;;;;8.38;3.70;;;6.00;93.10;;;;;;5117219;28;20199;-59
2022/02/25 09:07:50;;;;;;;6.32;3.70;;;6.10;92.70;;;;;;5116863;28;20206;-59
2022/02/25 09:10:18;;;;;;;11.43;3.88;;;6.20;92.60;;;;;;5116728;28;20219;-59
2022/02/25 09:12:47;;;;;;;8.95;3.75;;;6.30;92.60;;;;;;5117282;28;20226;-59
2022/02/25 09:15:15;;;;;;;9.60;4.60;;;6.30;92.20;;;;;;5116896;28;20207;-60
2022/02/25 09:17:44;;;;;;;9.35;4.07;;;6.20;92.10;;;;;;5116575;28;20203;-59
2022/02/25 09:20:13;;;;;;;8.35;3.65;;;6.20;92.00;;;;;;5116093;28;20223;-58
2022/02/25 09:22:41;;;;;;;10.23;3.80;;;6.20;91.90;;;;;;5116188;28;20196;-59
2022/02/25 09:25:09;;;;;;;10.75;4.00;;;6.10;92.00;;;;;;5116523;28;20210;-59
2022/02/25 09:27:37;;;;;;;9.13;4.10;;;6.20;91.90;;;;;;5117032;28;20199;-59
2022/02/25 09:30:07;;;;;;;6.20;3.63;;;6.20;92.30;;;;;;5116183;28;20312;-59
2022/02/25 09:32:34;;;;;;;8.80;3.85;;;6.30;91.80;;;;;;5117052;28;20200;-58
2022/02/25 09:35:03;;;;;;;11.77;5.25;;;6.20;91.90;;;;;;5116014;28;20200;-60
2022/02/25 09:37:34;;;;;;;9.73;4.25;;;6.20;92.00;;;;;;5115867;28;20207;-59
2022/02/25 09:40:02;;;;;;;7.90;3.70;;;6.10;92.10;;;;;;5116167;28;20243;-59
2022/02/25 09:42:29;;;;;;;7.50;4.13;;;6.10;92.20;;;;;;5116076;28;20204;-59
2022/02/25 09:44:57;;;;;;;7.18;4.40;;;6.00;92.50;;;;;;5115728;28;20211;-59
2022/02/25 09:47:27;;;;;;;12.43;4.15;;;5.90;92.60;;;;;;5116119;28;20206;-59
2022/02/25 09:49:54;;;;;;;13.25;4.25;;;5.90;93.10;;;;;;5115661;28;20671;-59
2022/02/25 09:52:23;;;;;;;10.40;4.95;;;5.80;93.30;;;;;;5116527;28;20203;-58
2022/02/25 09:54:50;;;;;;;8.70;4.05;;;5.70;94.00;;;;;;5115936;28;20200;-59
2022/02/25 09:57:17;;;;;;;13.50;5.10;;;5.60;94.50;;;;;;5115742;28;20226;-59
2022/02/25 09:59:44;;;;;;;6.43;4.55;;;5.60;94.90;;;;;;5115471;28;20570;-59
2022/02/25 10:02:11;;;;;;;8.40;4.60;;;5.60;95.20;;;;;;5115374;28;20207;-59
2022/02/25 10:04:38;;;;;;;8.88;4.60;;;5.70;95.50;;;;;;5115203;28;20200;-59
2022/02/25 10:07:25;;;;;;;10.95;4.40;;;5.70;95.50;;;;;;5115498;28;20204;-59
2022/02/25 10:09:53;;;;;;;6.80;4.28;;;5.70;95.70;;;;;;5115124;28;20234;-59
2022/02/25 10:12:20;;;;;;;10.75;4.15;;;5.70;95.80;;;;;;5115478;28;20226;-59
2022/02/25 10:14:49;;;;;;;8.50;4.35;;;5.80;96.10;;;;;;5115411;28;20237;-59
2022/02/25 10:17:19;;;;;;;11.70;5.50;;;5.80;96.10;;;;;;5114989;28;20203;-59
2022/02/25 10:19:54;;;;;;;10.25;5.10;;;5.80;96.10;;;;;;5114881;28;20220;-58
2022/02/25 10:22:25;;;;;;;7.35;4.40;;;5.70;96.30;;;;;;5128196;22;20564;-57
2022/02/25 10:24:55;;;;;;;7.97;4.78;;;5.70;96.40;;;;;;5114863;28;20202;-55
2022/02/25 10:27:26;;;;;;;11.60;5.35;;;5.70;96.50;;;;;;5115514;28;20678;-55
2022/02/25 10:29:54;;;;;;;8.73;4.78;;;5.70;96.60;;;;;;5114737;28;20223;-58
2022/02/25 10:32:28;;;;;;;7.93;4.13;;;5.70;96.80;;;;;;5116060;28;20617;-57
2022/02/25 10:34:55;;;;;;;7.53;4.72;;;5.70;96.90;;;;;;5116644;28;20239;-58
2022/02/25 10:37:22;;;;;;;7.50;5.53;;;5.70;96.90;;;;;;5119376;28;20214;-57
2022/02/25 10:39:49;;;;;;;5.85;4.88;;;5.70;96.90;;;;;;5117785;28;20219;-57
2022/02/25 10:42:22;;;;;;;9.13;5.07;;;5.60;96.80;;;;;;5116351;28;20216;-57
2022/02/25 10:44:54;;;;;;;6.78;5.60;;;5.60;97.10;;;;;;5117372;28;20285;-57
2022/02/25 10:47:23;;;;;;;8.82;4.78;;;5.60;97.40;;;;;;5115412;28;20256;-58
2022/02/25 10:50:00;;;;;;;8.98;5.15;;;5.70;97.50;;;;;;5115893;28;20256;-57
2022/02/25 10:52:30;;;;;;;7.22;5.13;;;5.70;97.60;;;;;;5116786;28;20250;-58
2022/02/25 10:54:58;;;;;;;5.82;4.55;;;5.70;97.70;;;;;;5116247;28;20195;-57
2022/02/25 10:57:28;;;;;;;11.02;4.90;;;5.70;97.80;;;;;;5117776;28;20574;-59
2022/02/25 10:59:57;;;;;;;12.35;5.32;;;5.80;97.70;;;;;;5119725;28;20191;-57
2022/02/25 11:02:27;;;;;;;8.95;4.82;;;5.80;97.50;;;;;;5121744;28;20623;-58
2022/02/25 11:05:05;;;;;;;12.52;5.38;;;5.90;97.60;;;;;;5122421;28;20184;-57
2022/02/25 11:07:32;;;;;;;6.80;5.40;;;6.00;97.60;;;;;;5122058;28;20188;-57
2022/02/25 11:09:59;;;;;;;9.02;4.90;;;6.20;97.20;;;;;;5118943;28;20220;-58
2022/02/25 11:12:29;;;;;;;9.57;5.13;;;6.40;96.90;;;;;;5117805;28;20219;-57
2022/02/25 11:14:57;;;;;;;7.07;4.50;;;6.50;96.60;;;;;;5116286;28;20245;-58
2022/02/25 11:17:24;;;;;;;13.98;5.45;;;6.70;96.50;;;;;;5114273;28;20200;-56
2022/02/25 11:19:58;;;;;;;7.30;5.72;;;7.00;96.00;;;;;;5117274;28;20549;-59
2022/02/25 11:22:28;;;;;;;7.00;4.57;;;7.20;94.70;;;;;;5116525;28;20263;-58
2022/02/25 11:24:56;;;;;;;4.50;3.47;;;7.30;93.90;;;;;;5115890;28;20230;-59
2022/02/25 11:27:24;;;;;;;5.82;4.70;;;7.20;92.70;;;;;;5115637;28;20249;-59
2022/02/25 11:30:00;;;;;;;9.73;5.38;;;7.10;92.70;;;;;;5115363;28;20228;-59
2022/02/25 11:32:34;;;;;;;7.90;4.20;;;7.10;93.00;;;;;;5114714;28;20219;-60
2022/02/25 11:35:11;;;;;;;13.82;5.10;;;7.20;92.80;;;;;;5114844;28;20219;-58
2022/02/25 11:37:43;;;;;;;6.88;3.97;;;7.30;92.60;;;;;;5114582;28;20229;-57
2022/02/25 11:40:12;;;;;;;10.18;4.68;;;7.40;92.40;;;;;;5113969;28;20195;-57
2022/02/25 11:42:39;;;;;;;8.95;4.05;;;7.40;92.20;;;;;;5113523;28;20258;-55
2022/02/25 11:45:24;;;;;;;5.80;3.75;;;7.50;91.90;;;;;;5114337;28;20207;-59
2022/02/25 11:47:54;;;;;;;5.63;3.40;;;7.50;91.60;;;;;;5113414;28;20195;-58
2022/02/25 11:50:39;;;;;;;4.18;2.90;;;7.40;91.20;;;;;;5113720;28;20702;-59
2022/02/25 11:53:21;;;;;;;8.52;2.90;;;7.30;90.50;;;;;;5113252;28;20216;-57
2022/02/25 11:55:50;;;;;;;5.07;2.70;;;7.20;90.60;;;;;;5114096;28;20631;-57
2022/02/25 11:58:43;;;;;;;4.65;2.65;;;7.00;90.50;;;;;;5114377;28;20204;-57
2022/02/25 12:01:13;;;;;;;7.35;3.15;;;6.90;90.60;;;;;;5113475;28;20645;-58
2022/02/25 12:04:08;;;;;;;5.65;3.05;;;6.80;91.00;;;;;;5113234;28;20238;-58
2022/02/25 12:06:59;;;;;;;3.17;2.53;;;6.70;91.30;;;;;;5114322;28;20560;-58
2022/02/25 12:09:48;;;;;;;10.63;4.10;;;6.70;91.20;;;;;;5113869;28;20248;-58
2022/02/25 12:12:37;;;;;;;3.72;2.45;;;6.70;91.40;;;;;;5113599;28;20249;-57
2022/02/25 12:15:14;;;;;;;6.05;3.30;;;6.80;91.60;;;;;;5113379;28;20198;-58
2022/02/25 12:17:45;;;;;;;8.23;3.42;;;6.90;91.40;;;;;;5113529;28;20285;-59
2022/02/25 12:20:17;;;;;;;5.65;3.33;;;7.10;91.10;;;;;;5114169;28;20183;-53
2022/02/25 12:23:03;;;;;;;4.78;2.58;;;7.30;90.80;;;;;;5113277;28;20223;-57
2022/02/25 12:25:52;;;;;;;3.75;2.45;;;7.50;90.60;;;;;;5113623;28;20716;-57
2022/02/25 12:28:45;;;;;;;4.05;1.88;;;7.60;89.80;;;;;;5106467;28;20624;-58
2022/02/25 12:31:14;;;;;;;6.57;2.92;;;7.50;88.10;;;;;;5117146;28;20262;-58
2022/02/25 12:33:56;;;;;;;6.93;2.60;;;7.40;89.50;;;;;;5117759;28;20219;-61
2022/02/25 12:36:44;;;;;;;5.57;2.70;;;7.50;90.10;;;;;;5117504;28;20203;-58
2022/02/25 12:39:18;;;;;;;7.97;3.03;;;7.60;90.00;;;;;;5109939;28;20195;-58
2022/02/25 12:41:47;;;;;;;8.00;3.00;;;7.60;90.00;;;;;;5117812;28;20628;-60
2022/02/25 12:44:15;;;;;;;5.80;2.60;;;7.60;90.30;;;;;;5117120;28;20206;-59
2022/02/25 12:46:45;;;;;;;7.28;3.00;;;7.60;90.40;;;;;;5117370;28;20204;-60
2022/02/25 12:49:15;;;;;;;5.15;2.92;;;7.70;90.50;;;;;;5117382;28;20706;-60
2022/02/25 12:51:44;;;;;;;6.60;2.85;;;7.70;90.60;;;;;;5117284;28;20288;-60
2022/02/25 12:54:13;;;;;;;8.25;2.53;;;7.70;90.70;;;;;;5117366;28;20243;-58
2022/02/25 12:56:45;;;;;;;8.57;2.70;;;7.80;90.10;;;;;;5117215;28;20199;-59
2022/02/25 12:59:13;;;;;;;4.90;2.95;;;7.80;90.20;;;;;;5117301;28;20188;-58
2022/02/25 13:01:48;;;;;;;3.65;2.38;;;7.90;89.90;;;;;;5116807;28;20242;-60
2022/02/25 13:04:19;;;;;;;6.03;2.60;;;7.90;89.40;;;;;;5117238;28;20217;-58
2022/02/25 13:06:48;;;;;;;4.75;2.58;;;7.80;89.80;;;;;;5116884;28;20279;-57
2022/02/25 13:09:17;;;;;;;8.45;2.63;;;7.60;90.00;;;;;;5116827;28;20687;-57
2022/02/25 13:11:49;;;;;;;4.30;2.58;;;7.60;90.50;;;;;;5116497;28;20251;-57